»·PEaware :: N5939V KFAT-KSBA

N5939V :: KFAT-KSBA

FLIGHT INFORMATION

Flight Status: Arrived
Operator: Privately registered:
United States
More flights under this callsign
Pilot: Anonymous 30260 (30260)
Aircraft: SOCATA TBM-900
(TBM9)
More flights by this aircraft type
Origin: KFAT Fresno Yosemite Intl
United States
Destination: KSBA Santa Barbara Mun
United States
More flights between these airports :: More routes between these airports
Route: +BULL3 TTE EHF V183 RZS
File this flight plan on PilotEdge
Remarks:
Altitude:
(Current/Filed)
16,000ft
Speed:
(Current/Filed)
290kts
Departed: 23-Sep-20 04:54 PM
Arrived: 23-Sep-20 05:51 PM
Distance/Time
Traveled:
141nm/0:56
Distance/Time
To Go:
Arrived

Flight Plot

Page will automatically refresh every two minutes.

Flight plan parsing failed; only flown route is shown


Map Options




Map Legend


Flown Route
Filed Route
Departure Airport
Arrival Airport
Navaid (VOR, NDB)
Fix

Horizontal Profiles

Position Reports

Time Latitude Longitude Heading Altitude Ground
Speed
23-Sep-20 16:35 36.773662 -119.721870 343 328ft 0kts
23-Sep-20 16:36 36.773662 -119.721870 343 328ft 0kts
23-Sep-20 16:37 36.773662 -119.721870 343 328ft 0kts
23-Sep-20 16:38 36.773662 -119.721870 343 328ft 0kts
23-Sep-20 16:39 36.773662 -119.721870 343 328ft 0kts
23-Sep-20 16:40 36.773662 -119.721870 343 328ft 0kts
23-Sep-20 16:41 36.773662 -119.721870 343 328ft 0kts
23-Sep-20 16:42 36.773662 -119.721870 343 328ft 0kts
23-Sep-20 16:43 36.773662 -119.721870 343 328ft 0kts
23-Sep-20 16:44 36.773662 -119.721870 343 328ft 0kts
23-Sep-20 16:44 36.773662 -119.721870 343 328ft 0kts
23-Sep-20 16:46 36.773662 -119.721870 343 328ft 0kts
23-Sep-20 16:47 36.773662 -119.721870 343 328ft 0kts
23-Sep-20 16:47 36.773663 -119.721870 343 328ft 0kts
23-Sep-20 16:49 36.773727 -119.721895 343 328ft 4kts
23-Sep-20 16:50 36.773025 -119.719094 124 327ft 14kts
23-Sep-20 16:50 36.771927 -119.715430 127 328ft 14kts
23-Sep-20 16:51 36.768816 -119.709992 125 328ft 19kts
23-Sep-20 16:52 36.767605 -119.704985 82 330ft 10kts
23-Sep-20 16:53 36.771977 -119.709003 303 329ft 90kts
23-Sep-20 16:54 36.792168 -119.743690 304 1705ft 146kts
23-Sep-20 16:55 36.816409 -119.785428 305 3945ft 151kts
23-Sep-20 16:56 36.841020 -119.827139 306 6098ft 152kts
23-Sep-20 16:57 36.867661 -119.872104 305 8361ft 160kts
23-Sep-20 16:59 36.900233 -119.923749 304 11075ft 162kts
23-Sep-20 16:59 36.922557 -119.961955 307 12857ft 168kts
23-Sep-20 17:00 36.953630 -120.019679 281 13596ft 201kts
23-Sep-20 17:01 36.914475 -120.020021 142 15220ft 209kts
23-Sep-20 17:02 36.865877 -119.973566 145 16108ft 234kts
23-Sep-20 17:03 36.810922 -119.915932 141 15940ft 275kts
23-Sep-20 17:04 36.749868 -119.854161 141 16010ft 285kts
23-Sep-20 17:05 36.686004 -119.789718 141 16008ft 288kts
23-Sep-20 17:06 36.618723 -119.721982 141 16009ft 289kts
23-Sep-20 17:07 36.551738 -119.654701 141 15996ft 290kts
23-Sep-20 17:08 36.485430 -119.588251 141 15992ft 290kts
23-Sep-20 17:09 36.419404 -119.522193 141 15991ft 290kts
23-Sep-20 17:10 36.353500 -119.456318 141 15993ft 290kts
23-Sep-20 17:11 36.287579 -119.390545 141 15996ft 290kts
23-Sep-20 17:12 36.222300 -119.325477 142 15997ft 290kts
23-Sep-20 17:13 36.156139 -119.259729 143 15999ft 289kts
23-Sep-20 17:14 36.089879 -119.194931 142 16005ft 289kts
23-Sep-20 17:15 36.023604 -119.129560 142 16008ft 289kts
23-Sep-20 17:16 35.957592 -119.064577 142 16008ft 290kts
23-Sep-20 17:17 35.884089 -119.026273 188 16019ft 283kts
23-Sep-20 17:18 35.804803 -119.040222 189 16006ft 284kts
23-Sep-20 17:19 35.726203 -119.054266 189 15997ft 284kts
23-Sep-20 17:20 35.647968 -119.068224 189 15991ft 284kts
23-Sep-20 17:21 35.569426 -119.082212 189 15995ft 284kts
23-Sep-20 17:22 35.490954 -119.096186 190 15997ft 284kts
23-Sep-20 17:23 35.421766 -119.141231 211 15998ft 281kts
23-Sep-20 17:24 35.353635 -119.188871 211 15999ft 282kts
23-Sep-20 17:25 35.285263 -119.236543 211 15999ft 282kts
23-Sep-20 17:26 35.215648 -119.284993 211 15999ft 282kts
23-Sep-20 17:27 35.145107 -119.334006 211 15999ft 282kts
23-Sep-20 17:28 35.073922 -119.383341 211 15999ft 282kts
23-Sep-20 17:29 35.003289 -119.432199 210 15998ft 282kts
23-Sep-20 17:30 34.932731 -119.480912 210 15995ft 284kts
23-Sep-20 17:31 34.855344 -119.536481 211 13167ft 320kts
23-Sep-20 17:32 34.775105 -119.588622 208 10565ft 276kts
23-Sep-20 17:33 34.702884 -119.638132 210 8972ft 261kts
23-Sep-20 17:34 34.634525 -119.684831 209 8971ft 260kts
23-Sep-20 17:35 34.560333 -119.730972 206 7024ft 261kts
23-Sep-20 17:36 34.505316 -119.767724 191 7089ft 182kts
23-Sep-20 17:37 34.453995 -119.744833 157 6547ft 200kts
23-Sep-20 17:38 34.399325 -119.718910 151 6185ft 184kts
23-Sep-20 17:39 34.370868 -119.667357 118 5020ft 186kts
23-Sep-20 17:40 34.331789 -119.631062 157 3966ft 163kts
23-Sep-20 17:41 34.321652 -119.592484 3 3179ft 150kts
23-Sep-20 17:42 34.346561 -119.626279 304 2949ft 142kts
23-Sep-20 17:43 34.364952 -119.661268 297 2440ft 109kts
23-Sep-20 17:44 34.378243 -119.693345 291 2102ft 104kts
23-Sep-20 17:45 34.390386 -119.722749 292 1957ft 95kts
23-Sep-20 17:46 34.401555 -119.752225 292 1283ft 96kts
23-Sep-20 17:47 34.412685 -119.780860 289 970ft 91kts
23-Sep-20 17:48 34.425101 -119.807500 304 650ft 89kts
23-Sep-20 17:49 34.427922 -119.835880 269 17ft 71kts
23-Sep-20 17:50 34.429211 -119.842179 347 13ft 7kts
23-Sep-20 17:51 34.431175 -119.838227 70 13ft 17kts
23-Sep-20 17:52 34.432787 -119.835780 71 13ft 0kts
23-Sep-20 17:53 34.432787 -119.835780 71 13ft 0kts
23-Sep-20 17:54 34.432787 -119.835780 71 13ft 0kts
23-Sep-20 17:55 34.432787 -119.835780 71 13ft 0kts
23-Sep-20 17:56 34.432787 -119.835780 71 13ft 0kts
23-Sep-20 17:57 34.432787 -119.835780 71 13ft 0kts

Navigation Log

Ident Type
Flight plan parsing failed, navigation log unavailable